createdAt,value
2022-09-27T00:01:08.805Z,0.82
2022-09-27T00:03:36.501Z,0.50
2022-09-27T00:06:08.452Z,0.50
2022-09-27T00:08:37.312Z,1.00
2022-09-27T00:11:07.916Z,0.60
2022-09-27T00:13:35.432Z,0.50
2022-09-27T00:16:07.211Z,0.40
2022-09-27T00:18:35.284Z,0.40
2022-09-27T00:21:08.600Z,0.50
2022-09-27T00:23:36.367Z,0.57
2022-09-27T00:26:04.956Z,0.50
2022-09-27T00:28:33.554Z,0.57
2022-09-27T00:31:01.853Z,0.65
2022-09-27T00:33:29.534Z,0.40
2022-09-27T00:36:04.864Z,0.68
2022-09-27T00:38:33.153Z,0.30
2022-09-27T00:41:00.675Z,0.40
2022-09-27T00:43:54.180Z,0.57
2022-09-27T00:46:38.364Z,0.38
2022-09-27T00:49:35.000Z,0.50
2022-09-27T00:52:07.375Z,0.55
2022-09-27T00:54:39.126Z,0.40
2022-09-27T00:57:06.879Z,0.40
2022-09-27T00:59:41.606Z,0.70
2022-09-27T01:02:09.500Z,0.55
2022-09-27T01:04:38.861Z,0.30
2022-09-27T01:07:06.844Z,0.38
2022-09-27T01:09:35.245Z,0.40
2022-09-27T01:12:17.529Z,0.60
2022-09-27T01:15:12.468Z,0.50
2022-09-27T01:17:42.705Z,0.70
2022-09-27T01:20:13.625Z,0.52
2022-09-27T01:22:53.299Z,0.45
2022-09-27T01:25:54.728Z,0.43
2022-09-27T01:31:30.163Z,0.30
2022-09-27T01:34:23.507Z,0.30
2022-09-27T01:37:08.264Z,0.30
2022-09-27T01:44:39.732Z,0.40
2022-09-27T01:47:21.788Z,0.43
2022-09-27T01:50:19.403Z,0.47
2022-09-27T01:53:15.125Z,0.30
2022-09-27T01:56:06.024Z,0.50
2022-09-27T01:59:13.446Z,0.45
2022-09-27T02:01:50.669Z,0.43
2022-09-27T02:07:20.557Z,0.30
2022-09-27T02:10:17.230Z,0.43
2022-09-27T02:13:15.224Z,0.40
2022-09-27T02:16:05.726Z,0.40
2022-09-27T02:19:07.021Z,0.40
2022-09-27T02:21:50.113Z,0.47
2022-09-27T02:24:23.735Z,0.40
2022-09-27T02:27:09.413Z,0.50
2022-09-27T02:29:46.336Z,0.40
2022-09-27T02:32:13.976Z,0.30
2022-09-27T02:34:44.176Z,0.50
2022-09-27T02:37:11.843Z,0.50
2022-09-27T02:39:39.169Z,0.55
2022-09-27T02:42:08.318Z,0.47
2022-09-27T02:44:38.379Z,0.32
2022-09-27T02:47:21.748Z,0.43
2022-09-27T02:50:10.895Z,0.40
2022-09-27T02:53:08.131Z,0.50
2022-09-27T02:55:50.908Z,0.50
2022-09-27T02:59:23.800Z,0.28
2022-09-27T03:02:42.295Z,0.40
2022-09-27T03:05:35.596Z,0.70
2022-09-27T03:08:04.289Z,0.45
2022-09-27T03:10:31.674Z,0.40
2022-09-27T03:12:59.042Z,0.50
2022-09-27T03:15:26.657Z,0.68
2022-09-27T03:18:03.932Z,0.45
2022-09-27T03:20:49.731Z,0.32
2022-09-27T03:23:19.536Z,0.47
2022-09-27T03:25:47.033Z,0.63
2022-09-27T03:28:14.838Z,0.50
2022-09-27T03:30:46.132Z,0.45
2022-09-27T03:33:29.756Z,0.40
2022-09-27T03:36:03.808Z,0.50
2022-09-27T03:38:31.134Z,0.55
2022-09-27T03:40:59.182Z,0.40
2022-09-27T03:43:26.760Z,0.32
2022-09-27T03:45:59.099Z,0.35
2022-09-27T03:48:28.260Z,0.40
2022-09-27T03:50:55.789Z,0.40
2022-09-27T03:53:23.068Z,0.63
2022-09-27T03:55:50.488Z,0.35
2022-09-27T03:58:17.996Z,0.40
2022-09-27T04:00:46.822Z,0.35
2022-09-27T04:03:14.783Z,0.52
2022-09-27T04:06:14.778Z,0.45
2022-09-27T04:08:45.067Z,0.35
2022-09-27T04:11:12.556Z,0.35
2022-09-27T04:13:42.063Z,0.50
2022-09-27T04:16:09.516Z,0.43
2022-09-27T04:19:09.426Z,0.20
2022-09-27T04:22:04.421Z,0.43
2022-09-27T04:24:31.959Z,0.60
2022-09-27T04:27:17.225Z,0.60
2022-09-27T04:29:46.105Z,0.45
2022-09-27T04:32:33.332Z,0.40
2022-09-27T04:35:37.734Z,0.40
2022-09-27T04:38:05.273Z,0.50
2022-09-27T04:40:35.918Z,0.50
2022-09-27T04:43:04.586Z,0.45
2022-09-27T04:45:31.992Z,0.47
2022-09-27T04:47:59.426Z,0.40
2022-09-27T04:50:27.052Z,0.60
2022-09-27T04:53:02.596Z,0.35
2022-09-27T04:55:29.957Z,0.43
2022-09-27T04:57:57.343Z,0.47
2022-09-27T05:00:24.653Z,0.43
2022-09-27T05:02:58.088Z,0.30
2022-09-27T05:05:42.517Z,0.50
2022-09-27T05:08:09.811Z,0.57
2022-09-27T05:10:57.036Z,0.38
2022-09-27T05:13:24.349Z,0.30
2022-09-27T05:15:53.049Z,0.45
2022-09-27T05:18:38.881Z,0.40
2022-09-27T05:21:41.428Z,0.40
2022-09-27T05:24:08.718Z,0.40
2022-09-27T05:26:37.594Z,0.40
2022-09-27T05:29:05.007Z,0.63
2022-09-27T05:31:32.464Z,0.50
2022-09-27T05:33:59.839Z,0.40
2022-09-27T05:36:37.511Z,0.50
2022-09-27T05:39:05.372Z,0.55
2022-09-27T05:41:33.065Z,0.50
2022-09-27T05:44:01.279Z,0.40
2022-09-27T05:46:28.891Z,0.55
2022-09-27T05:48:56.199Z,0.60
2022-09-27T05:51:23.553Z,0.40
2022-09-27T05:53:51.686Z,0.47
2022-09-27T05:56:25.847Z,0.30
2022-09-27T05:59:13.282Z,0.32
2022-09-27T06:02:00.616Z,0.57
2022-09-27T06:04:47.913Z,0.52
2022-09-27T06:07:44.116Z,0.50
2022-09-27T06:10:20.046Z,0.35
2022-09-27T06:12:47.972Z,0.43
2022-09-27T06:15:33.484Z,0.50
2022-09-27T06:18:10.521Z,0.50
2022-09-27T06:20:39.175Z,0.30
2022-09-27T06:23:08.153Z,0.43
2022-09-27T06:25:37.211Z,0.38
2022-09-27T06:28:14.246Z,0.50
2022-09-27T06:30:46.189Z,0.50
2022-09-27T06:33:36.627Z,0.60
2022-09-27T06:36:06.710Z,0.50
2022-09-27T06:38:36.043Z,0.40
2022-09-27T06:41:16.607Z,0.45
2022-09-27T06:44:01.400Z,0.30
2022-09-27T06:46:47.004Z,0.50
2022-09-27T06:49:25.497Z,0.40
2022-09-27T06:51:54.771Z,0.45
2022-09-27T06:54:23.200Z,0.50
2022-09-27T06:56:50.555Z,0.52
2022-09-27T06:59:36.441Z,0.55
2022-09-27T07:02:22.066Z,0.40
2022-09-27T07:05:10.351Z,0.50
2022-09-27T07:07:58.822Z,0.50
2022-09-27T07:10:27.810Z,0.47
2022-09-27T07:12:56.036Z,0.60
2022-09-27T07:15:25.283Z,0.40
2022-09-27T07:17:58.912Z,0.50
2022-09-27T07:20:31.502Z,0.20
2022-09-27T07:22:59.427Z,0.30
2022-09-27T07:25:26.886Z,0.60
2022-09-27T07:27:55.197Z,0.40
2022-09-27T07:30:23.308Z,0.93
2022-09-27T07:32:50.675Z,2.60
2022-09-27T07:35:18.451Z,2.47
2022-09-27T07:37:45.769Z,1.77
2022-09-27T07:40:14.512Z,1.75
2022-09-27T07:42:41.908Z,1.50
2022-09-27T07:45:10.456Z,1.73
2022-09-27T07:47:56.805Z,2.53
2022-09-27T07:50:49.016Z,2.50
2022-09-27T07:53:34.692Z,2.28
2022-09-27T07:56:31.057Z,1.92
2022-09-27T07:58:59.226Z,2.15
2022-09-27T08:01:26.902Z,2.08
2022-09-27T08:03:54.566Z,2.00
2022-09-27T08:06:22.567Z,1.90
2022-09-27T08:08:49.996Z,1.73
2022-09-27T08:11:19.215Z,1.70
2022-09-27T08:16:23.442Z,1.60
2022-09-27T08:19:20.200Z,1.50
2022-09-27T08:21:48.077Z,1.25
2022-09-27T08:24:24.246Z,1.50
2022-09-27T08:27:02.995Z,1.23
2022-09-27T08:30:03.584Z,1.40
2022-09-27T08:32:30.958Z,1.38
2022-09-27T08:35:02.065Z,1.35
2022-09-27T08:37:30.005Z,1.08
2022-09-27T08:39:57.319Z,1.20
2022-09-27T08:42:41.310Z,1.00
2022-09-27T08:45:11.848Z,1.20
2022-09-27T08:50:28.142Z,1.38
2022-09-27T08:53:14.157Z,1.38
2022-09-27T08:55:58.023Z,1.00
2022-09-27T08:58:30.545Z,1.05
2022-09-27T09:01:09.098Z,1.30
2022-09-27T09:03:55.490Z,1.10
2022-09-27T09:06:27.203Z,1.20
2022-09-27T09:09:20.817Z,1.10
2022-09-27T09:12:44.112Z,1.30
2022-09-27T09:15:29.709Z,0.80
2022-09-27T09:18:01.992Z,0.88
2022-09-27T09:21:02.575Z,0.90
2022-09-27T09:23:51.743Z,1.02
2022-09-27T09:26:21.760Z,0.85
2022-09-27T09:29:24.936Z,0.70
2022-09-27T09:32:20.877Z,0.80
2022-09-27T09:34:57.756Z,0.85
2022-09-27T09:37:31.286Z,0.65
2022-09-27T09:40:19.834Z,0.80
2022-09-27T09:43:16.449Z,0.90
2022-09-27T09:45:53.777Z,0.70
2022-09-27T09:48:24.236Z,0.50
2022-09-27T09:50:59.787Z,0.70
2022-09-27T09:53:32.887Z,0.90
2022-09-27T09:56:05.480Z,0.60
2022-09-27T09:58:43.225Z,0.80
2022-09-27T10:03:59.905Z,0.68
2022-09-27T10:06:30.502Z,0.57
2022-09-27T10:11:46.123Z,0.80
2022-09-27T10:14:21.163Z,0.60
2022-09-27T10:16:59.619Z,0.82
2022-09-27T10:19:33.155Z,0.60
2022-09-27T10:22:12.397Z,0.60
2022-09-27T10:25:02.027Z,0.50
2022-09-27T10:27:50.428Z,0.60
2022-09-27T10:30:34.576Z,0.75
2022-09-27T10:33:19.363Z,0.90
2022-09-27T10:35:52.099Z,0.80
2022-09-27T10:38:31.279Z,0.60
2022-09-27T10:41:38.130Z,0.50
2022-09-27T10:44:27.064Z,0.57
2022-09-27T10:47:09.136Z,0.65
2022-09-27T10:49:47.705Z,0.50
2022-09-27T10:52:33.805Z,0.60
2022-09-27T10:55:25.702Z,0.63
2022-09-27T10:57:56.568Z,0.43
2022-09-27T11:00:34.509Z,0.50
2022-09-27T11:03:07.629Z,0.50
2022-09-27T11:05:39.745Z,0.63
2022-09-27T11:08:19.706Z,0.57
2022-09-27T11:11:02.608Z,0.40
2022-09-27T11:13:33.865Z,0.45
2022-09-27T11:16:11.125Z,0.40
2022-09-27T11:19:20.072Z,0.47
2022-09-27T11:21:50.515Z,0.60
2022-09-27T11:24:48.542Z,0.57
2022-09-27T11:27:20.468Z,0.50
2022-09-27T11:30:06.058Z,0.60
2022-09-27T11:33:18.795Z,0.40
2022-09-27T11:36:10.479Z,0.40
2022-09-27T11:41:42.384Z,0.50
2022-09-27T11:44:55.844Z,0.30
2022-09-27T11:47:42.040Z,0.40
2022-09-27T11:50:26.929Z,0.43
2022-09-27T11:53:23.086Z,0.47
2022-09-27T11:56:25.747Z,0.40
2022-09-27T11:59:04.583Z,0.50
2022-09-27T12:01:52.035Z,0.30
2022-09-27T12:04:25.128Z,0.35
2022-09-27T12:06:58.756Z,0.40
2022-09-27T12:09:43.501Z,0.60
2022-09-27T12:12:23.278Z,0.57
2022-09-27T12:14:56.576Z,0.43
2022-09-27T12:17:31.319Z,0.50
2022-09-27T12:20:03.361Z,0.40
2022-09-27T12:22:59.974Z,0.45
2022-09-27T12:25:54.293Z,0.28
2022-09-27T12:28:52.321Z,0.60
2022-09-27T12:31:29.858Z,0.60
2022-09-27T12:34:04.211Z,0.47
2022-09-27T12:36:43.980Z,0.50
2022-09-27T12:39:27.324Z,0.35
2022-09-27T12:42:14.930Z,0.20
2022-09-27T12:44:49.091Z,0.40
2022-09-27T12:47:50.043Z,0.30
2022-09-27T12:50:43.089Z,0.40
2022-09-27T12:53:23.804Z,0.30
2022-09-27T12:56:15.970Z,0.60
2022-09-27T12:58:54.675Z,0.30
2022-09-27T13:01:37.004Z,0.55
2022-09-27T13:04:26.068Z,0.60
2022-09-27T13:07:17.703Z,0.50
2022-09-27T13:10:07.536Z,0.50
2022-09-27T13:12:40.049Z,0.40
2022-09-27T13:15:25.432Z,0.43
2022-09-27T13:17:58.739Z,0.43
2022-09-27T13:20:36.961Z,0.35
2022-09-27T13:23:19.696Z,0.40
2022-09-27T13:26:04.128Z,0.35
2022-09-27T13:28:59.490Z,0.30
2022-09-27T13:31:55.035Z,0.30
2022-09-27T13:34:46.853Z,0.35
2022-09-27T13:37:45.685Z,0.45
2022-09-27T13:40:33.487Z,0.30
2022-09-27T13:44:07.436Z,0.40
2022-09-27T13:47:16.158Z,0.40
2022-09-27T13:49:48.911Z,0.20
2022-09-27T13:52:44.930Z,0.50
2022-09-27T13:55:35.655Z,0.40
2022-09-27T13:58:13.094Z,0.50
2022-09-27T14:00:45.241Z,0.30
2022-09-27T14:03:12.710Z,0.55
2022-09-27T14:05:47.056Z,0.38
2022-09-27T14:08:38.353Z,0.30
2022-09-27T14:13:39.785Z,0.30
2022-09-27T14:16:16.704Z,0.45
2022-09-27T14:18:57.784Z,0.50
2022-09-27T14:21:40.386Z,0.40
2022-09-27T14:24:33.147Z,0.40
2022-09-27T14:27:29.528Z,0.30
2022-09-27T14:30:17.056Z,0.50
2022-09-27T14:32:55.228Z,0.38
2022-09-27T14:36:07.856Z,0.35
2022-09-27T14:38:38.475Z,0.30
2022-09-27T14:41:15.835Z,0.20
2022-09-27T14:43:50.681Z,0.30
2022-09-27T14:46:30.100Z,0.40
2022-09-27T14:48:58.078Z,0.30
2022-09-27T14:51:30.811Z,0.22
2022-09-27T14:54:01.556Z,0.28
2022-09-27T14:56:37.552Z,0.30
2022-09-27T14:59:12.680Z,0.30
2022-09-27T15:01:48.271Z,0.20
2022-09-27T15:04:16.097Z,0.30
2022-09-27T15:06:45.544Z,0.30
2022-09-27T15:09:17.514Z,0.60
2022-09-27T15:11:48.227Z,0.50
2022-09-27T15:14:17.657Z,0.40
2022-09-27T15:16:46.528Z,0.30
2022-09-27T15:19:19.064Z,0.25
2022-09-27T15:21:46.548Z,0.20
2022-09-27T15:24:52.748Z,0.30
2022-09-27T15:27:25.509Z,0.40
2022-09-27T15:29:55.897Z,1.27
2022-09-27T15:32:28.762Z,0.57
2022-09-27T15:34:57.524Z,1.13
2022-09-27T15:37:29.015Z,1.20
2022-09-27T15:40:06.524Z,1.10
2022-09-27T15:43:01.539Z,1.23
2022-09-27T15:45:36.757Z,1.30
2022-09-27T15:48:18.228Z,0.70
2022-09-27T15:50:47.119Z,0.93
2022-09-27T15:53:34.312Z,1.00
2022-09-27T15:56:03.539Z,0.80
2022-09-27T15:58:31.742Z,0.85
2022-09-27T16:01:05.837Z,0.75
2022-09-27T16:03:34.023Z,0.93
2022-09-27T16:06:03.107Z,0.68
2022-09-27T16:08:30.654Z,0.90
2022-09-27T16:10:59.260Z,0.75
2022-09-27T16:13:32.533Z,0.80
2022-09-27T16:16:02.071Z,0.90
2022-09-27T16:18:30.862Z,0.90
2022-09-27T16:21:01.336Z,0.90
2022-09-27T16:23:28.653Z,0.80
2022-09-27T16:25:56.062Z,0.65
2022-09-27T16:28:23.310Z,1.05
2022-09-27T16:30:50.770Z,0.73
2022-09-27T16:33:18.402Z,0.70
2022-09-27T16:35:45.812Z,0.63
2022-09-27T16:38:13.067Z,0.70
2022-09-27T16:40:40.399Z,0.75
2022-09-27T16:43:08.117Z,0.60
2022-09-27T16:45:36.855Z,0.60
2022-09-27T16:48:04.421Z,0.77
2022-09-27T16:50:50.370Z,0.70
2022-09-27T16:53:17.662Z,0.60
2022-09-27T16:55:45.086Z,0.60
2022-09-27T16:58:12.607Z,0.50
2022-09-27T17:00:42.180Z,0.50
2022-09-27T17:03:10.368Z,0.75
2022-09-27T17:05:37.750Z,0.60
2022-09-27T17:08:05.569Z,0.50
2022-09-27T17:10:32.949Z,0.40
2022-09-27T17:13:01.696Z,0.57
2022-09-27T17:15:29.583Z,0.60
2022-09-27T17:17:56.949Z,0.65
2022-09-27T17:20:24.224Z,0.57
2022-09-27T17:22:51.530Z,0.63
2022-09-27T17:25:18.945Z,0.60
2022-09-27T17:27:46.438Z,0.63
2022-09-27T17:30:14.065Z,0.50
2022-09-27T17:32:43.040Z,0.50
2022-09-27T17:35:12.120Z,0.57
2022-09-27T17:37:39.669Z,0.60
2022-09-27T17:40:07.466Z,0.40
2022-09-27T17:42:37.228Z,0.43
2022-09-27T17:45:04.813Z,0.50
2022-09-27T17:47:50.612Z,0.40
2022-09-27T17:50:30.184Z,0.60
2022-09-27T17:52:58.984Z,0.70
2022-09-27T17:55:27.159Z,0.68
2022-09-27T17:57:55.256Z,0.43
2022-09-27T18:00:23.042Z,0.40
2022-09-27T18:02:53.250Z,0.52
2022-09-27T18:05:22.028Z,0.60
2022-09-27T18:07:50.128Z,0.60
2022-09-27T18:10:19.103Z,0.47
2022-09-27T18:12:47.136Z,0.50
2022-09-27T18:15:18.269Z,0.57
2022-09-27T18:20:21.287Z,0.35
2022-09-27T18:22:53.859Z,0.50
2022-09-27T18:25:21.424Z,0.60
2022-09-27T18:27:52.306Z,0.65
2022-09-27T18:30:20.022Z,0.68
2022-09-27T18:32:50.582Z,0.40
2022-09-27T18:35:19.968Z,0.50
2022-09-27T18:37:48.033Z,0.45
2022-09-27T18:40:27.926Z,0.50
2022-09-27T18:43:04.774Z,0.40
2022-09-27T18:45:36.697Z,0.40
2022-09-27T18:48:06.881Z,0.55
2022-09-27T18:50:37.874Z,0.50
2022-09-27T18:53:05.505Z,0.60
2022-09-27T18:55:38.517Z,0.32
2022-09-27T18:58:06.471Z,0.40
2022-09-27T19:00:35.122Z,0.45
2022-09-27T19:03:02.711Z,0.35
2022-09-27T19:05:31.172Z,0.57
2022-09-27T19:07:58.619Z,0.40
2022-09-27T19:10:26.107Z,0.45
2022-09-27T19:12:56.918Z,0.32
2022-09-27T19:15:24.880Z,0.30
2022-09-27T19:17:52.179Z,0.30
2022-09-27T19:20:19.536Z,0.38
2022-09-27T19:22:46.879Z,0.50
2022-09-27T19:25:14.395Z,0.30
2022-09-27T19:27:43.286Z,0.50
2022-09-27T19:30:11.350Z,0.32
2022-09-27T19:32:39.898Z,0.52
2022-09-27T19:35:08.427Z,0.40
2022-09-27T19:37:37.012Z,0.40
2022-09-27T19:40:09.404Z,0.30
2022-09-27T19:42:38.189Z,0.43
2022-09-27T19:45:11.369Z,0.40
2022-09-27T19:47:39.147Z,0.50
2022-09-27T19:50:07.820Z,0.50
2022-09-27T19:52:35.177Z,0.30
2022-09-27T19:55:03.854Z,0.40
2022-09-27T19:57:35.574Z,0.73
2022-09-27T20:00:03.453Z,0.45
2022-09-27T20:02:32.041Z,0.40
2022-09-27T20:04:59.667Z,0.50
2022-09-27T20:07:27.131Z,0.50
2022-09-27T20:09:54.486Z,0.30
2022-09-27T20:12:23.724Z,0.40
2022-09-27T20:14:51.185Z,0.50
2022-09-27T20:17:18.453Z,0.50
2022-09-27T20:19:45.731Z,0.35
2022-09-27T20:22:13.008Z,0.50
2022-09-27T20:24:40.310Z,0.60
2022-09-27T20:27:07.531Z,0.40
2022-09-27T20:29:34.794Z,0.60
2022-09-27T20:32:27.380Z,0.63
2022-09-27T20:34:50.876Z,0.57
2022-09-27T20:37:18.172Z,0.50
2022-09-27T20:39:45.444Z,0.60
2022-09-27T20:42:12.748Z,0.50
2022-09-27T20:44:40.315Z,0.50
2022-09-27T20:47:07.721Z,0.50
2022-09-27T20:49:35.040Z,0.45
2022-09-27T20:52:02.443Z,0.65
2022-09-27T20:54:29.759Z,0.60
2022-09-27T20:56:57.080Z,0.50
2022-09-27T20:59:24.458Z,0.52
2022-09-27T21:01:52.540Z,0.60
2022-09-27T21:04:21.668Z,0.45
2022-09-27T21:06:49.068Z,0.60
2022-09-27T21:09:19.946Z,0.70
2022-09-27T21:14:15.696Z,0.50
2022-09-27T21:16:43.162Z,0.70
2022-09-27T21:19:10.762Z,0.50
2022-09-27T21:21:38.034Z,0.75
2022-09-27T21:24:05.382Z,0.82
2022-09-27T21:26:33.914Z,0.60
2022-09-27T21:29:06.133Z,0.60
2022-09-27T21:31:33.647Z,0.70
2022-09-27T21:34:03.574Z,0.57
2022-09-27T21:36:38.909Z,0.70
2022-09-27T21:39:08.767Z,0.60
2022-09-27T21:41:37.458Z,0.70
2022-09-27T21:44:06.079Z,0.75
2022-09-27T21:46:34.169Z,0.77
2022-09-27T21:49:02.294Z,1.02
2022-09-27T21:51:37.485Z,0.63
2022-09-27T21:54:07.515Z,0.60
2022-09-27T21:56:37.722Z,0.82
2022-09-27T21:59:06.274Z,0.70
2022-09-27T22:01:34.556Z,0.80
2022-09-27T22:04:04.170Z,0.70
2022-09-27T22:06:34.648Z,0.57
2022-09-27T22:09:03.312Z,0.60
2022-09-27T22:11:33.333Z,0.82
2022-09-27T22:14:01.016Z,0.75
2022-09-27T22:16:30.427Z,0.50
2022-09-27T22:18:58.828Z,0.63
2022-09-27T22:21:30.010Z,0.77
2022-09-27T22:24:06.681Z,0.90
2022-09-27T22:26:37.813Z,0.75
2022-09-27T22:29:06.152Z,0.60
2022-09-27T22:31:34.072Z,0.73
2022-09-27T22:34:04.758Z,0.60
2022-09-27T22:36:33.628Z,0.70
2022-09-27T22:39:01.657Z,0.80
2022-09-27T22:41:30.636Z,1.05
2022-09-27T22:43:58.222Z,0.60
2022-09-27T22:46:25.871Z,0.60
2022-09-27T22:48:53.237Z,0.90
2022-09-27T22:51:20.636Z,0.70
2022-09-27T22:53:47.963Z,0.70
2022-09-27T22:56:18.723Z,1.00
2022-09-27T22:58:47.706Z,0.60
2022-09-27T23:01:21.047Z,0.70
2022-09-27T23:03:50.022Z,0.40
2022-09-27T23:06:19.446Z,0.65
2022-09-27T23:08:47.753Z,0.70
2022-09-27T23:11:17.915Z,0.80
2022-09-27T23:13:48.290Z,0.50
2022-09-27T23:16:21.368Z,0.70
2022-09-27T23:18:51.742Z,0.70
2022-09-27T23:21:19.034Z,0.80
2022-09-27T23:23:46.612Z,0.70
2022-09-27T23:26:16.287Z,0.63
2022-09-27T23:28:44.285Z,0.88
2022-09-27T23:31:14.195Z,0.73
2022-09-27T23:33:45.157Z,0.90
2022-09-27T23:36:18.060Z,0.70
2022-09-27T23:38:47.025Z,0.73
2022-09-27T23:41:15.671Z,0.80
2022-09-27T23:43:43.031Z,0.68
2022-09-27T23:46:11.413Z,0.65
2022-09-27T23:48:39.064Z,0.63
2022-09-27T23:51:08.310Z,0.60
2022-09-27T23:53:35.749Z,0.90
2022-09-27T23:56:12.778Z,0.52
2022-09-27T23:58:42.289Z,0.50
